Alexandria, Ohio
Current Conditions -  °F | °C
As of 2:54 PM on Friday 28 Nov 2014 (Local Time) from KVTA Reporting Station
Scattered Clouds Scattered Clouds  
Wind Chill: -5°   Ceiling: Unl
Heat Index: -1°   Visibility: 10mi
Dew Point: -8°   Wind: 8mph
Humidity: 61%   Direction: 210°SSW
Pressure: 30.25"   Gusts: NA
Location:  40.09°N, 82.61°W
Report Text: KVTA 281954Z AUTO 21007KT 10SM FEW029 SCT050 M01/M08 A3025 RMK AO2 SLP254 T10111078
Loading
Personal Weather Stations






























Interactive Weather Map New forecast layout! Learn more

10-Day Weather Forecast

Advertisements
Track Severe Weather on mobile